Time;durP1;ratioP1;P1;durP2;ratioP2;P2;SDS_P1;SDS_P2;PMS_P1;PMS_P2;Temp;Humidity;BMP_temperature;BMP_pressure;BME280_temperature;BME280_humidity;BME280_pressure;Samples;Min_cycle;Max_cycle;Signal;HPM_P1;HPM_P2
2021/06/27 00:01:22;;;;;;;35.37;29.13;;;;;15.70;101137.00;;;;10501089;28;20216;-78
2021/06/27 00:06:46;;;;;;;38.92;29.85;;;;;15.70;101135.00;;;;10458747;28;20235;-77
2021/06/27 00:11:48;;;;;;;42.03;31.50;;;;;15.60;101133.00;;;;10475392;28;20196;-78
2021/06/27 00:16:54;;;;;;;43.07;33.57;;;;;15.60;101130.00;;;;10471638;28;20193;-78
2021/06/27 00:21:56;;;;;;;39.80;31.00;;;;;15.60;101126.00;;;;10526994;28;20217;-78
2021/06/27 00:26:58;;;;;;;44.20;35.27;;;;;15.50;101124.00;;;;10471829;28;20560;-78
2021/06/27 00:32:01;;;;;;;41.50;33.03;;;;;15.40;101124.00;;;;10489124;28;20209;-77
2021/06/27 00:37:03;;;;;;;45.10;35.77;;;;;15.40;101110.00;;;;10471972;28;20190;-78
2021/06/27 00:42:06;;;;;;;45.70;34.20;;;;;15.40;101114.00;;;;10507289;28;20563;-78
2021/06/27 00:47:08;;;;;;;48.43;36.27;;;;;15.40;101113.00;;;;10512365;28;20255;-78
2021/06/27 00:52:10;;;;;;;45.87;35.93;;;;;15.40;101113.00;;;;10524382;28;20185;-78
2021/06/27 00:57:12;;;;;;;44.20;33.47;;;;;15.40;101103.00;;;;10496524;28;20193;-78
2021/06/27 01:02:14;;;;;;;46.33;31.80;;;;;15.30;101105.00;;;;10486747;28;20722;-78
2021/06/27 01:07:16;;;;;;;46.37;34.73;;;;;15.30;101096.00;;;;10505235;28;20254;-78
2021/06/27 01:12:18;;;;;;;45.50;36.33;;;;;15.30;101106.00;;;;10496070;28;20196;-78
2021/06/27 01:17:19;;;;;;;46.03;36.47;;;;;15.30;101096.00;;;;10512261;28;20195;-78
2021/06/27 01:22:26;;;;;;;49.37;36.13;;;;;15.30;101102.00;;;;10480852;28;20604;-78
2021/06/27 01:27:28;;;;;;;46.37;34.27;;;;;15.30;101107.00;;;;10513482;28;20197;-78
2021/06/27 01:32:31;;;;;;;46.53;35.07;;;;;15.30;101103.00;;;;10476691;28;20213;-78
2021/06/27 01:37:33;;;;;;;52.33;38.47;;;;;15.30;101096.00;;;;10469166;28;20213;-78
2021/06/27 01:42:35;;;;;;;61.93;41.03;;;;;15.40;101082.00;;;;10491265;28;20204;-78
2021/06/27 01:47:37;;;;;;;47.47;36.30;;;;;15.40;101073.00;;;;10510868;28;20280;-78
2021/06/27 01:52:39;;;;;;;56.27;39.97;;;;;15.40;101084.00;;;;10484747;28;20191;-78
2021/06/27 01:57:41;;;;;;;53.63;38.77;;;;;15.40;101079.00;;;;10496553;28;20194;-78
2021/06/27 02:02:43;;;;;;;62.87;39.97;;;;;15.40;101091.00;;;;10460658;28;20217;-78
2021/06/27 02:07:45;;;;;;;60.30;40.87;;;;;15.40;101103.00;;;;10446466;28;20202;-78
2021/06/27 02:12:49;;;;;;;65.67;44.10;;;;;15.40;101103.00;;;;10504702;28;20185;-79
2021/06/27 02:18:10;;;;;;;74.50;48.50;;;;;15.50;101095.00;;;;10487484;28;20223;-79
2021/06/27 02:23:12;;;;;;;70.33;47.13;;;;;15.50;101094.00;;;;10495100;28;20213;-79
2021/06/27 02:28:13;;;;;;;64.73;44.33;;;;;15.50;101096.00;;;;10486680;28;20448;-79
2021/06/27 02:33:16;;;;;;;68.03;45.60;;;;;15.60;101078.00;;;;10509177;28;20277;-78
2021/06/27 02:38:18;;;;;;;62.83;42.67;;;;;15.60;101072.00;;;;10504096;28;20209;-78
2021/06/27 02:43:20;;;;;;;65.50;42.70;;;;;15.60;101062.00;;;;10477859;28;20259;-78
2021/06/27 02:48:22;;;;;;;69.67;44.53;;;;;15.60;101060.00;;;;10484130;28;20644;-78
2021/06/27 02:53:25;;;;;;;63.73;42.97;;;;;15.60;101060.00;;;;10475446;28;20730;-78
2021/06/27 02:58:27;;;;;;;55.23;39.10;;;;;15.60;101039.00;;;;10496759;28;20193;-79
2021/06/27 03:03:29;;;;;;;59.27;41.87;;;;;15.60;101039.00;;;;10512911;28;20542;-79
2021/06/27 03:08:31;;;;;;;68.17;46.90;;;;;15.60;101041.00;;;;10468366;28;20201;-79
2021/06/27 03:13:34;;;;;;;77.50;49.37;;;;;15.60;101037.00;;;;10502415;28;20655;-79
2021/06/27 03:18:38;;;;;;;75.17;47.53;;;;;15.60;101036.00;;;;10476499;28;20212;-79
2021/06/27 03:23:40;;;;;;;67.60;45.17;;;;;15.60;101042.00;;;;10515721;28;20209;-78
2021/06/27 03:28:44;;;;;;;71.87;46.13;;;;;15.60;101038.00;;;;10475997;28;20200;-79
2021/06/27 03:33:46;;;;;;;75.43;45.53;;;;;15.70;101029.00;;;;10482991;28;20205;-79
2021/06/27 03:38:58;;;;;;;68.97;46.33;;;;;15.70;101033.00;;;;10496957;28;20197;-78
2021/06/27 03:44:00;;;;;;;77.30;46.23;;;;;15.80;101045.00;;;;10491006;28;20205;-78
2021/06/27 03:49:03;;;;;;;67.50;43.63;;;;;15.80;101038.00;;;;10475228;28;20284;-78
2021/06/27 03:54:05;;;;;;;79.40;51.37;;;;;15.70;101038.00;;;;10478981;28;20287;-78
2021/06/27 03:59:07;;;;;;;84.73;52.70;;;;;15.70;101027.00;;;;10491651;28;20209;-79
2021/06/27 04:04:09;;;;;;;75.40;49.70;;;;;15.70;101026.00;;;;10473384;28;20214;-78
2021/06/27 04:09:11;;;;;;;81.77;52.83;;;;;15.70;101033.00;;;;10455759;28;20197;-79
2021/06/27 04:14:13;;;;;;;73.37;49.13;;;;;15.70;101018.00;;;;10495991;28;20275;-78
2021/06/27 04:19:15;;;;;;;77.23;50.87;;;;;15.70;101012.00;;;;10531282;28;20203;-78
2021/06/27 04:24:16;;;;;;;87.60;55.97;;;;;15.70;101015.00;;;;10528864;28;20671;-78
2021/06/27 04:29:18;;;;;;;91.97;57.77;;;;;15.90;101003.00;;;;10565362;28;20196;-78
2021/06/27 04:34:20;;;;;;;96.93;58.00;;;;;16.00;101002.00;;;;10496397;28;20215;-78
2021/06/27 04:39:22;;;;;;;82.60;56.37;;;;;16.00;101007.00;;;;10477730;28;20204;-78
2021/06/27 04:44:24;;;;;;;95.40;59.20;;;;;16.10;101007.00;;;;10491207;28;20214;-78
2021/06/27 04:49:26;;;;;;;91.25;58.28;;;;;16.30;100988.00;;;;10446379;28;20204;-79
2021/06/27 04:54:28;;;;;;;93.40;59.97;;;;;16.90;100984.00;;;;10476056;28;20193;-79
2021/06/27 04:59:30;;;;;;;99.10;62.90;;;;;17.40;100990.00;;;;10514155;28;20190;-78
2021/06/27 05:04:32;;;;;;;102.65;60.92;;;;;18.00;101002.00;;;;10475283;28;20205;-79
2021/06/27 05:09:34;;;;;;;86.45;56.88;;;;;18.30;101011.00;;;;10471697;28;20200;-78
2021/06/27 05:14:36;;;;;;;81.85;59.10;;;;;18.60;101011.00;;;;10471904;28;20209;-79
2021/06/27 05:19:37;;;;;;;65.32;49.65;;;;;18.70;101013.00;;;;10479043;28;20544;-78
2021/06/27 05:24:40;;;;;;;60.80;46.97;;;;;19.00;101004.00;;;;10474060;28;20202;-78
2021/06/27 05:29:43;;;;;;;59.55;47.38;;;;;19.20;100999.00;;;;10470811;28;20660;-78
2021/06/27 05:34:45;;;;;;;61.17;46.60;;;;;19.10;100999.00;;;;10518637;28;20679;-78
2021/06/27 05:39:47;;;;;;;54.83;45.85;;;;;19.20;100994.00;;;;10511555;28;20200;-78
2021/06/27 05:44:49;;;;;;;54.85;46.63;;;;;19.30;100990.00;;;;10495182;28;20239;-78
2021/06/27 05:49:51;;;;;;;52.40;43.92;;;;;19.50;100983.00;;;;10499544;28;20192;-78
2021/06/27 05:54:53;;;;;;;48.47;40.45;;;;;19.60;100995.00;;;;10477604;28;20216;-78
2021/06/27 05:59:55;;;;;;;43.35;37.83;;;;;19.70;101001.00;;;;10510300;28;20199;-79
2021/06/27 06:04:56;;;;;;;40.17;34.78;;;;;19.70;101013.00;;;;10517866;28;20591;-78
2021/06/27 06:09:58;;;;;;;39.22;34.00;;;;;19.80;101014.00;;;;10496753;28;20205;-78
2021/06/27 06:15:03;;;;;;;41.67;32.85;;;;;19.90;101021.00;;;;10506701;28;20210;-78
2021/06/27 06:20:05;;;;;;;40.05;34.95;;;;;19.90;101033.00;;;;10492783;28;20254;-78
2021/06/27 06:25:08;;;;;;;38.88;33.72;;;;;20.10;101019.00;;;;10503238;28;20200;-78
2021/06/27 06:30:10;;;;;;;40.50;34.13;;;;;20.30;101023.00;;;;10469912;28;20197;-77
2021/06/27 06:35:12;;;;;;;37.53;31.80;;;;;20.50;101024.00;;;;10477095;28;20304;-79
2021/06/27 06:40:15;;;;;;;35.30;31.08;;;;;20.80;101037.00;;;;10501288;28;20209;-78
2021/06/27 06:45:16;;;;;;;39.00;32.28;;;;;21.00;101051.00;;;;10513443;28;20207;-78
2021/06/27 06:50:18;;;;;;;35.72;31.92;;;;;21.30;101048.00;;;;10483581;28;20651;-77
2021/06/27 06:55:21;;;;;;;35.60;30.77;;;;;21.40;101034.00;;;;10462776;28;20648;-77
2021/06/27 07:00:24;;;;;;;35.38;29.95;;;;;21.50;101039.00;;;;10499369;28;20216;-78
2021/06/27 07:05:25;;;;;;;34.25;30.67;;;;;21.70;101051.00;;;;10490890;28;20202;-78
2021/06/27 07:10:27;;;;;;;33.78;30.10;;;;;21.80;101046.00;;;;10498824;28;20211;-78
2021/06/27 07:15:29;;;;;;;32.92;29.40;;;;;21.90;101051.00;;;;10498375;28;20189;-77
2021/06/27 07:20:31;;;;;;;33.50;29.90;;;;;22.10;101055.00;;;;10501521;28;20193;-76
2021/06/27 07:25:34;;;;;;;31.20;28.10;;;;;22.20;101043.00;;;;10517678;28;20205;-77
2021/06/27 07:30:36;;;;;;;29.90;26.83;;;;;22.20;101061.00;;;;10474131;28;20217;-77
2021/06/27 07:35:39;;;;;;;30.70;25.85;;;;;22.40;101048.00;;;;10473523;28;20206;-77
2021/06/27 07:40:41;;;;;;;28.10;25.15;;;;;22.90;101044.00;;;;10493238;28;20717;-77
2021/06/27 07:45:44;;;;;;;26.40;23.60;;;;;23.40;101041.00;;;;10499503;28;20296;-77
2021/06/27 07:50:46;;;;;;;26.27;23.63;;;;;23.70;101034.00;;;;10488155;28;20187;-77
2021/06/27 07:55:49;;;;;;;24.52;22.13;;;;;23.90;101026.00;;;;10507842;28;20231;-77
2021/06/27 08:00:51;;;;;;;25.02;22.42;;;;;24.00;101020.00;;;;10512781;28;20280;-77
2021/06/27 08:05:53;;;;;;;24.80;22.10;;;;;24.20;101012.00;;;;10494592;28;20201;-77
2021/06/27 08:10:55;;;;;;;22.98;20.63;;;;;24.40;101007.00;;;;10499887;28;20192;-77
2021/06/27 08:15:58;;;;;;;21.95;19.77;;;;;24.70;101002.00;;;;10529983;28;20189;-77
2021/06/27 08:21:01;;;;;;;21.05;18.35;;;;;24.90;101004.00;;;;10491091;28;20196;-79
2021/06/27 08:26:06;;;;;;;20.00;18.00;;;;;24.90;100996.00;;;;10491537;28;20209;-79
2021/06/27 08:31:08;;;;;;;19.92;18.10;;;;;25.00;100985.00;;;;10510225;28;20219;-78
2021/06/27 08:36:10;;;;;;;21.63;18.30;;;;;25.30;100981.00;;;;10505710;28;20236;-77
2021/06/27 08:41:14;;;;;;;19.02;17.13;;;;;25.70;100974.00;;;;10479856;28;20205;-77
2021/06/27 08:46:16;;;;;;;18.25;16.35;;;;;26.10;100962.00;;;;10502760;28;20204;-77
2021/06/27 08:51:19;;;;;;;17.88;15.88;;;;;26.10;100950.00;;;;10523724;28;20223;-77
2021/06/27 08:56:21;;;;;;;16.27;14.68;;;;;26.20;100938.00;;;;10530631;28;20188;-77
2021/06/27 09:01:23;;;;;;;15.98;14.35;;;;;26.20;100920.00;;;;10504649;28;20181;-77
2021/06/27 09:06:30;;;;;;;16.00;14.40;;;;;26.40;100923.00;;;;10539781;28;20240;-78
2021/06/27 09:11:32;;;;;;;15.05;13.18;;;;;26.50;100915.00;;;;10544211;28;20188;-78
2021/06/27 09:16:34;;;;;;;15.13;13.55;;;;;26.70;100906.00;;;;10491443;28;20185;-77
2021/06/27 09:21:36;;;;;;;14.48;13.07;;;;;27.00;100900.00;;;;10507004;28;20299;-78
2021/06/27 09:26:38;;;;;;;13.48;12.25;;;;;27.20;100889.00;;;;10469392;28;20610;-77
2021/06/27 09:31:42;;;;;;;14.07;12.50;;;;;27.30;100888.00;;;;10514305;28;20213;-77
2021/06/27 09:36:49;;;;;;;14.02;12.73;;;;;27.70;100883.00;;;;10509082;28;20197;-78
2021/06/27 09:41:53;;;;;;;14.57;13.23;;;;;28.00;100879.00;;;;10540964;28;20185;-77
2021/06/27 09:46:57;;;;;;;14.45;13.10;;;;;28.30;100879.00;;;;10497739;28;20222;-78
2021/06/27 09:52:07;;;;;;;14.30;13.00;;;;;28.20;100876.00;;;;10522859;28;20232;-78
2021/06/27 09:57:20;;;;;;;14.82;13.30;;;;;27.90;100872.00;;;;10494250;28;20193;-79
2021/06/27 10:02:26;;;;;;;11.93;10.80;;;;;27.60;100881.00;;;;10491918;28;20208;-78
2021/06/27 10:07:38;;;;;;;12.43;11.20;;;;;27.80;100872.00;;;;10526574;28;20196;-78
2021/06/27 10:12:40;;;;;;;9.77;8.77;;;;;28.30;100863.00;;;;10502985;28;20864;-78
2021/06/27 10:17:43;;;;;;;10.23;9.30;;;;;29.10;100864.00;;;;10484574;28;20622;-78
2021/06/27 10:22:45;;;;;;;10.60;9.55;;;;;29.50;100848.00;;;;10467823;28;20214;-78
2021/06/27 10:27:48;;;;;;;11.02;9.18;;;;;29.70;100857.00;;;;10483383;28;20204;-78
2021/06/27 10:32:50;;;;;;;10.98;9.98;;;;;30.00;100851.00;;;;10493671;28;20227;-78
2021/06/27 10:37:53;;;;;;;11.02;9.68;;;;;30.30;100855.00;;;;10496080;28;20205;-79
2021/06/27 10:43:01;;;;;;;10.07;9.18;;;;;30.00;100848.00;;;;10484969;28;20220;-79
2021/06/27 10:48:43;;;;;;;10.05;9.00;;;;;30.30;100850.00;;;;10510348;28;20185;-78
2021/06/27 10:54:10;;;;;;;11.07;9.38;;;;;30.60;100837.00;;;;10526246;28;20200;-78
2021/06/27 10:59:44;;;;;;;10.10;9.10;;;;;30.60;100846.00;;;;10510127;28;20242;-79
2021/06/27 11:04:48;;;;;;;8.50;7.75;;;;;30.70;100847.00;;;;10484895;28;20244;-79
2021/06/27 11:09:50;;;;;;;9.73;8.68;;;;;31.00;100853.00;;;;10467945;28;20243;-78
2021/06/27 11:15:15;;;;;;;9.43;8.52;;;;;30.90;100838.00;;;;10484159;28;20198;-79
2021/06/27 11:20:17;;;;;;;8.70;7.90;;;;;30.70;100844.00;;;;10491449;28;20250;-79
2021/06/27 11:25:39;;;;;;;10.07;9.05;;;;;31.20;100844.00;;;;10471135;28;20217;-78
2021/06/27 11:30:41;;;;;;;10.00;9.18;;;;;31.70;100839.00;;;;10502441;28;20311;-78
2021/06/27 11:35:51;;;;;;;9.75;8.82;;;;;32.10;100835.00;;;;10485054;28;20632;-78
2021/06/27 11:40:53;;;;;;;9.32;8.52;;;;;32.70;100835.00;;;;10526930;28;20196;-78
2021/06/27 11:45:54;;;;;;;9.90;9.00;;;;;32.40;100834.00;;;;10493340;28;20262;-78
2021/06/27 11:50:57;;;;;;;9.95;8.90;;;;;33.10;100827.00;;;;10458728;28;20614;-79
2021/06/27 11:56:04;;;;;;;10.07;8.95;;;;;32.50;100831.00;;;;10506371;28;20266;-78
2021/06/27 12:01:08;;;;;;;9.68;8.77;;;;;31.70;100839.00;;;;10533957;28;20224;-79
2021/06/27 12:06:12;;;;;;;8.90;8.00;;;;;31.20;100824.00;;;;10517283;28;20284;-79
2021/06/27 12:11:14;;;;;;;10.43;9.05;;;;;30.80;100830.00;;;;10492533;28;20231;-79
2021/06/27 12:16:16;;;;;;;9.40;7.80;;;;;30.40;100827.00;;;;10465242;28;20308;-78
2021/06/27 12:21:18;;;;;;;9.02;8.23;;;;;30.00;100825.00;;;;10509656;28;20219;-78
2021/06/27 12:26:22;;;;;;;9.10;8.15;;;;;29.50;100835.00;;;;10527322;28;20193;-78
2021/06/27 12:31:25;;;;;;;7.45;6.72;;;;;28.70;100834.00;;;;10531979;28;20189;-78
2021/06/27 12:36:46;;;;;;;8.48;7.05;;;;;28.40;100839.00;;;;10483391;28;20228;-78
2021/06/27 12:41:48;;;;;;;7.93;6.93;;;;;28.90;100831.00;;;;10489002;28;20190;-78
2021/06/27 12:46:51;;;;;;;8.50;6.78;;;;;29.80;100824.00;;;;10497332;28;20194;-78
2021/06/27 12:51:56;;;;;;;7.15;6.55;;;;;30.90;100814.00;;;;10478623;28;20239;-79
2021/06/27 12:57:12;;;;;;;7.07;6.38;;;;;31.40;100806.00;;;;10472479;28;20211;-79
2021/06/27 13:02:31;;;;;;;7.10;6.60;;;;;31.90;100800.00;;;;10489976;28;20197;-79
2021/06/27 13:07:35;;;;;;;6.57;6.07;;;;;32.90;100790.00;;;;10524369;28;20196;-79
2021/06/27 13:12:46;;;;;;;6.80;6.32;;;;;32.90;100789.00;;;;10510594;28;20197;-80
2021/06/27 13:17:59;;;;;;;6.60;6.00;;;;;32.90;100778.00;;;;10497935;28;20193;-80
2021/06/27 13:23:07;;;;;;;8.60;6.43;;;;;32.30;100787.00;;;;10501837;28;20193;-78
2021/06/27 13:28:16;;;;;;;7.57;6.97;;;;;32.00;100777.00;;;;10510492;28;20215;-79
2021/06/27 13:33:20;;;;;;;7.50;6.63;;;;;32.00;100790.00;;;;10531409;28;20224;-78
2021/06/27 13:38:22;;;;;;;6.78;6.10;;;;;32.10;100783.00;;;;10488329;28;20300;-78
2021/06/27 13:43:24;;;;;;;7.30;6.63;;;;;32.20;100784.00;;;;10573084;28;20199;-78
2021/06/27 13:48:26;;;;;;;8.23;6.63;;;;;32.70;100776.00;;;;10533117;28;20200;-78
2021/06/27 13:53:28;;;;;;;9.60;7.13;;;;;32.40;100784.00;;;;10511579;28;20215;-78
2021/06/27 13:58:30;;;;;;;7.55;6.75;;;;;31.80;100787.00;;;;10490764;28;20193;-78
2021/06/27 14:03:33;;;;;;;6.90;6.30;;;;;31.20;100781.00;;;;10484050;28;20196;-78
2021/06/27 14:08:35;;;;;;;7.38;6.80;;;;;31.10;100780.00;;;;10514716;28;20185;-78
2021/06/27 14:13:38;;;;;;;8.07;7.38;;;;;31.20;100769.00;;;;10497337;28;20209;-78
2021/06/27 14:18:40;;;;;;;7.00;6.40;;;;;32.40;100764.00;;;;10480660;28;20198;-79
2021/06/27 14:23:42;;;;;;;6.75;6.15;;;;;33.10;100763.00;;;;10464428;28;20272;-79
2021/06/27 14:28:46;;;;;;;7.50;6.82;;;;;33.90;100773.00;;;;10542155;28;20276;-78
2021/06/27 14:33:48;;;;;;;7.10;6.50;;;;;34.50;100779.00;;;;10488913;28;20602;-78
2021/06/27 14:38:50;;;;;;;6.45;5.88;;;;;33.10;100786.00;;;;10478109;28;20284;-79
2021/06/27 14:43:52;;;;;;;5.35;4.85;;;;;32.10;100782.00;;;;10447556;28;20247;-79
2021/06/27 14:48:55;;;;;;;4.90;4.40;;;;;31.00;100795.00;;;;10481279;28;20200;-79
2021/06/27 14:53:57;;;;;;;5.68;5.10;;;;;30.30;100778.00;;;;10462744;28;20639;-79
2021/06/27 14:59:14;;;;;;;5.32;4.03;;;;;29.70;100781.00;;;;10501369;28;20188;-80
2021/06/27 15:04:16;;;;;;;5.35;4.95;;;;;29.10;100775.00;;;;10484234;28;20184;-81
2021/06/27 15:09:18;;;;;;;4.47;4.18;;;;;28.70;100776.00;;;;10493233;28;20193;-81
2021/06/27 15:14:20;;;;;;;4.70;4.32;;;;;28.40;100775.00;;;;10453825;28;20213;-80
2021/06/27 15:19:22;;;;;;;6.18;4.32;;;;;28.20;100774.00;;;;10517017;28;20201;-81
2021/06/27 15:24:24;;;;;;;5.75;4.68;;;;;27.90;100779.00;;;;10515794;28;20193;-82
2021/06/27 15:29:26;;;;;;;4.85;4.50;;;;;27.50;100780.00;;;;10500658;28;20197;-81
2021/06/27 15:34:29;;;;;;;2.85;2.60;;;;;26.90;100784.00;;;;10533047;28;20212;-81
2021/06/27 15:39:31;;;;;;;4.13;3.08;;;;;26.30;100789.00;;;;10500207;28;20656;-81
2021/06/27 15:44:34;;;;;;;3.42;3.13;;;;;25.80;100783.00;;;;10489446;28;20189;-80
2021/06/27 15:49:36;;;;;;;4.57;3.05;;;;;25.40;100778.00;;;;10479674;28;20201;-82
2021/06/27 15:54:38;;;;;;;2.83;2.63;;;;;25.20;100786.00;;;;10492117;28;20204;-80
2021/06/27 15:59:40;;;;;;;3.83;2.47;;;;;25.00;100792.00;;;;10494605;28;20252;-81
2021/06/27 16:04:46;;;;;;;2.20;2.00;;;;;24.80;100785.00;;;;10533846;28;20235;-82
2021/06/27 16:09:48;;;;;;;3.22;2.92;;;;;24.70;100784.00;;;;10493968;28;20203;-82
2021/06/27 16:14:50;;;;;;;3.47;3.20;;;;;24.50;100784.00;;;;10501140;28;20197;-82
2021/06/27 16:19:52;;;;;;;3.92;3.58;;;;;24.60;100775.00;;;;10490046;28;20190;-83
2021/06/27 16:24:54;;;;;;;5.07;3.63;;;;;24.50;100780.00;;;;10525551;28;20185;-81
2021/06/27 16:29:58;;;;;;;4.47;4.07;;;;;24.00;100786.00;;;;10506311;28;20559;-80
2021/06/27 16:35:01;;;;;;;4.70;3.88;;;;;23.90;100784.00;;;;10499932;28;20209;-80
2021/06/27 16:40:10;;;;;;;4.95;3.88;;;;;23.90;100778.00;;;;10490956;28;20205;-81
2021/06/27 16:45:12;;;;;;;5.93;3.60;;;;;23.70;100771.00;;;;10486716;28;20193;-81
2021/06/27 16:50:15;;;;;;;3.65;3.15;;;;;23.60;100782.00;;;;10479324;28;20197;-82
2021/06/27 16:55:17;;;;;;;3.97;3.58;;;;;23.90;100779.00;;;;10504817;28;20205;-81
2021/06/27 17:00:19;;;;;;;6.32;3.83;;;;;24.10;100781.00;;;;10509084;28;20193;-80
2021/06/27 17:05:21;;;;;;;5.30;3.38;;;;;24.40;100769.00;;;;10510179;28;20178;-78
2021/06/27 17:10:23;;;;;;;3.40;3.05;;;;;24.20;100777.00;;;;10529453;28;20787;-78
2021/06/27 17:15:27;;;;;;;3.83;3.53;;;;;24.40;100768.00;;;;10513509;28;20266;-78
2021/06/27 17:20:30;;;;;;;3.42;2.83;;;;;24.30;100760.00;;;;10530100;28;20598;-78
2021/06/27 17:25:32;;;;;;;6.03;3.53;;;;;24.10;100758.00;;;;10497026;28;20185;-78
2021/06/27 17:30:35;;;;;;;4.35;3.20;;;;;24.30;100776.00;;;;10504305;28;20189;-78
2021/06/27 17:35:39;;;;;;;4.00;3.50;;;;;24.40;100780.00;;;;10528286;28;20217;-78
2021/06/27 17:40:42;;;;;;;4.10;3.80;;;;;24.40;100780.00;;;;10546272;28;20196;-78
2021/06/27 17:45:46;;;;;;;4.72;3.67;;;;;24.50;100786.00;;;;10512918;28;20242;-78
2021/06/27 17:50:50;;;;;;;4.50;3.83;;;;;24.60;100791.00;;;;10512873;28;20203;-78
2021/06/27 17:56:16;;;;;;;4.65;4.25;;;;;25.00;100797.00;;;;10512111;28;20258;-78
2021/06/27 18:01:14;;;;;;;4.28;3.88;;;;;24.90;100796.00;;;;10495495;28;20193;-78
2021/06/27 18:06:16;;;;;;;4.60;3.70;;;;;24.80;100796.00;;;;10546339;28;20667;-78
2021/06/27 18:11:21;;;;;;;3.95;3.65;;;;;24.90;100796.00;;;;10546892;28;20548;-78
2021/06/27 18:16:23;;;;;;;5.20;3.45;;;;;24.90;100794.00;;;;10528014;28;20212;-78
2021/06/27 18:21:25;;;;;;;3.72;3.42;;;;;24.80;100797.00;;;;10527582;28;20192;-78
2021/06/27 18:26:27;;;;;;;3.75;3.50;;;;;25.10;100803.00;;;;10510768;28;20181;-78
2021/06/27 18:31:30;;;;;;;3.92;3.00;;;;;24.60;100814.00;;;;10510521;28;20192;-78
2021/06/27 18:36:32;;;;;;;6.90;3.33;;;;;24.10;100809.00;;;;10525887;28;20217;-79
2021/06/27 18:41:34;;;;;;;4.22;3.50;;;;;24.00;100808.00;;;;10510017;28;20208;-78
2021/06/27 18:46:36;;;;;;;3.28;2.97;;;;;23.60;100816.00;;;;10510608;28;20189;-78
2021/06/27 18:51:38;;;;;;;3.00;2.80;;;;;23.10;100812.00;;;;10509206;28;20200;-78
2021/06/27 18:56:42;;;;;;;3.80;3.50;;;;;22.80;100820.00;;;;10483651;28;20304;-78
2021/06/27 19:01:44;;;;;;;3.83;3.22;;;;;22.50;100824.00;;;;10498511;28;20196;-78
2021/06/27 19:06:46;;;;;;;3.92;3.20;;;;;22.10;100818.00;;;;10508941;28;20193;-78
2021/06/27 19:11:48;;;;;;;3.47;3.17;;;;;21.80;100821.00;;;;10527614;28;20225;-78
2021/06/27 19:16:50;;;;;;;4.57;2.72;;;;;21.60;100835.00;;;;10509400;28;20215;-79
2021/06/27 19:21:52;;;;;;;4.13;3.45;;;;;21.30;100855.00;;;;10526098;28;20235;-80
2021/06/27 19:26:54;;;;;;;4.90;3.58;;;;;20.70;100858.00;;;;10500550;28;20192;-82
2021/06/27 19:31:56;;;;;;;4.65;3.90;;;;;20.20;100851.00;;;;10484639;28;20213;-81
2021/06/27 19:36:58;;;;;;;4.72;4.28;;;;;19.90;100867.00;;;;10468803;28;20945;-80
2021/06/27 19:42:00;;;;;;;5.60;3.88;;;;;19.60;100866.00;;;;10467988;28;20556;-79
2021/06/27 19:47:03;;;;;;;5.85;4.55;;;;;19.50;100857.00;;;;10499634;28;20251;-80
2021/06/27 19:52:05;;;;;;;6.40;4.38;;;;;19.30;100851.00;;;;10509256;28;20211;-79
2021/06/27 19:57:13;;;;;;;4.90;4.40;;;;;19.10;100834.00;;;;10508484;28;20216;-79
2021/06/27 20:02:16;;;;;;;9.18;4.50;;;;;18.90;100822.00;;;;10496441;28;20207;-78
2021/06/27 20:07:18;;;;;;;5.18;4.60;;;;;18.80;100834.00;;;;10533264;28;20375;-78
2021/06/27 20:12:20;;;;;;;8.40;4.55;;;;;18.70;100843.00;;;;10516552;28;20196;-78
2021/06/27 20:17:22;;;;;;;5.00;4.05;;;;;18.70;100845.00;;;;10532599;28;20204;-78
2021/06/27 20:22:24;;;;;;;5.57;4.07;;;;;18.60;100848.00;;;;10516853;28;20208;-78
2021/06/27 20:27:26;;;;;;;6.82;3.83;;;;;18.50;100853.00;;;;10516459;28;20193;-77
2021/06/27 20:32:28;;;;;;;5.40;4.63;;;;;18.40;100852.00;;;;10482427;28;20212;-77
2021/06/27 20:37:30;;;;;;;7.95;4.85;;;;;18.30;100870.00;;;;10515668;28;20216;-78
2021/06/27 20:42:32;;;;;;;7.72;5.13;;;;;18.30;100879.00;;;;10531279;28;20200;-78
2021/06/27 20:47:34;;;;;;;5.05;4.55;;;;;18.20;100880.00;;;;10532258;28;20189;-77
2021/06/27 20:52:36;;;;;;;7.75;4.88;;;;;18.10;100884.00;;;;10514005;28;20193;-77
2021/06/27 20:57:38;;;;;;;5.00;4.50;;;;;18.10;100892.00;;;;10530068;28;20212;-77
2021/06/27 21:02:40;;;;;;;7.15;4.63;;;;;18.00;100893.00;;;;10549495;28;20185;-78
2021/06/27 21:07:46;;;;;;;5.57;4.85;;;;;18.00;100901.00;;;;10530308;28;20181;-77
2021/06/27 21:12:48;;;;;;;5.28;4.78;;;;;18.00;100905.00;;;;10512892;28;20215;-77
2021/06/27 21:17:50;;;;;;;7.75;5.70;;;;;17.90;100917.00;;;;10529959;28;20683;-78
2021/06/27 21:22:52;;;;;;;9.48;5.20;;;;;17.90;100919.00;;;;10490203;28;20202;-78
2021/06/27 21:27:54;;;;;;;11.23;5.85;;;;;17.80;100923.00;;;;10489286;28;20186;-78
2021/06/27 21:32:56;;;;;;;8.38;6.10;;;;;17.70;100921.00;;;;10472247;28;20221;-78
2021/06/27 21:37:58;;;;;;;9.43;5.97;;;;;17.70;100918.00;;;;10471552;28;20276;-78
2021/06/27 21:42:59;;;;;;;8.23;6.38;;;;;17.70;100913.00;;;;10454598;28;20205;-78
2021/06/27 21:48:02;;;;;;;6.47;5.70;;;;;17.70;100910.00;;;;10437750;28;20189;-78
2021/06/27 21:53:04;;;;;;;8.43;5.53;;;;;17.70;100915.00;;;;10468825;28;20200;-78
2021/06/27 21:58:08;;;;;;;9.98;5.93;;;;;17.50;100909.00;;;;10563501;28;20672;-78
2021/06/27 22:03:11;;;;;;;9.38;6.10;;;;;17.40;100908.00;;;;10512225;28;20185;-78
2021/06/27 22:08:13;;;;;;;8.95;5.97;;;;;17.30;100894.00;;;;10494983;28;20189;-78
2021/06/27 22:13:15;;;;;;;9.02;6.57;;;;;17.20;100897.00;;;;10511853;28;20705;-78
2021/06/27 22:18:17;;;;;;;10.00;7.05;;;;;17.20;100896.00;;;;10511524;28;20676;-77
2021/06/27 22:23:21;;;;;;;8.52;6.80;;;;;17.20;100895.00;;;;10527174;28;20695;-78
2021/06/27 22:28:23;;;;;;;9.70;7.38;;;;;17.20;100906.00;;;;10528594;28;20543;-77
2021/06/27 22:33:25;;;;;;;10.20;7.40;;;;;17.10;100911.00;;;;10511736;28;20230;-78
2021/06/27 22:38:26;;;;;;;8.93;7.90;;;;;17.00;100918.00;;;;10478310;28;20572;-77
2021/06/27 22:43:28;;;;;;;7.60;6.90;;;;;16.90;100911.00;;;;10494114;28;20283;-78
2021/06/27 22:48:30;;;;;;;11.32;8.35;;;;;16.90;100902.00;;;;10509614;28;20188;-78
2021/06/27 22:53:32;;;;;;;13.77;8.85;;;;;16.80;100903.00;;;;10493805;28;20652;-78
2021/06/27 22:58:34;;;;;;;10.25;9.15;;;;;16.80;100906.00;;;;10509766;28;20204;-78
2021/06/27 23:03:38;;;;;;;12.40;9.63;;;;;16.80;100908.00;;;;10496736;28;20661;-78
2021/06/27 23:08:40;;;;;;;12.32;8.70;;;;;16.70;100903.00;;;;10468846;28;20194;-78
2021/06/27 23:13:42;;;;;;;12.13;9.05;;;;;16.60;100897.00;;;;10502281;28;20193;-78
2021/06/27 23:18:44;;;;;;;12.45;9.90;;;;;16.60;100899.00;;;;10485947;28;20217;-77
2021/06/27 23:23:46;;;;;;;13.23;10.82;;;;;16.60;100878.00;;;;10468943;28;20200;-78
2021/06/27 23:28:48;;;;;;;14.75;10.68;;;;;16.60;100857.00;;;;10509204;28;20195;-78
2021/06/27 23:33:50;;;;;;;11.10;9.13;;;;;16.50;100853.00;;;;10492304;28;20220;-78
2021/06/27 23:38:52;;;;;;;12.98;10.00;;;;;16.50;100853.00;;;;10550884;28;20319;-78
2021/06/27 23:43:55;;;;;;;13.60;10.35;;;;;16.50;100850.00;;;;10502578;28;20643;-78
2021/06/27 23:48:56;;;;;;;13.70;11.00;;;;;16.40;100839.00;;;;10535802;28;20578;-78
2021/06/27 23:53:58;;;;;;;16.60;11.63;;;;;16.30;100827.00;;;;10519110;28;20200;-78
2021/06/27 23:59:01;;;;;;;12.10;10.53;;;;;16.30;100822.00;;;;10485331;28;20681;-78
